Time;durP1;ratioP1;P1;durP2;ratioP2;P2;SDS_P1;SDS_P2;PMS_P1;PMS_P2;Temp;Humidity;BMP_temperature;BMP_pressure;BME280_temperature;BME280_humidity;BME280_pressure;Samples;Min_cycle;Max_cycle;Signal;HPM_P1;HPM_P2
2022/04/12 00:00:23;;;;;;;23.73;21.37;;;;;;;13.63;100.00;100520.20;2005471;71;32873;-76
2022/04/12 00:06:14;;;;;;;25.73;22.30;;;;;;;13.61;100.00;100524.69;1995388;70;32832;-76
2022/04/12 00:12:02;;;;;;;24.27;21.93;;;;;;;13.46;100.00;100514.45;2010746;70;32974;-76
2022/04/12 00:24:00;;;;;;;27.23;24.77;;;;;;;13.06;100.00;100502.98;2004992;71;32855;-77
2022/04/12 00:32:55;;;;;;;32.50;29.60;;;;;;;12.70;100.00;100503.44;2038440;69;32314;-79
2022/04/12 00:35:26;;;;;;;34.40;30.77;;;;;;;12.55;100.00;100510.11;1939152;73;26212;-76
2022/04/12 00:37:58;;;;;;;36.70;33.47;;;;;;;12.50;100.00;100505.19;1929844;73;26310;-76
2022/04/12 00:40:30;;;;;;;36.80;33.57;;;;;;;12.31;100.00;100504.70;2010261;70;26204;-76
2022/04/12 00:46:28;;;;;;;38.73;35.93;;;;;;;12.21;100.00;100489.55;2008981;70;32811;-76
2022/04/12 00:52:13;;;;;;;40.57;37.40;;;;;;;12.33;100.00;100487.67;2001044;71;32907;-76
2022/04/12 00:55:05;;;;;;;41.13;38.23;;;;;;;12.20;100.00;100490.67;1967220;72;26197;-75
2022/04/12 01:00:53;;;;;;;48.13;44.83;;;;;;;12.04;100.00;100482.89;1985473;71;32912;-76
2022/04/12 01:06:44;;;;;;;46.33;43.33;;;;;;;12.05;100.00;100475.64;2007329;70;32830;-77
2022/04/12 01:12:30;;;;;;;45.13;42.23;;;;;;;12.27;100.00;100481.95;2013275;70;32847;-76
2022/04/12 01:18:29;;;;;;;47.30;44.10;;;;;;;12.28;100.00;100487.19;2009502;71;32853;-75
2022/04/12 01:24:18;;;;;;;48.83;45.73;;;;;;;12.20;100.00;100484.28;2018391;71;32895;-76
2022/04/12 01:30:13;;;;;;;50.60;46.93;;;;;;;12.28;100.00;100477.44;2005587;71;32889;-75
2022/04/12 01:36:02;;;;;;;53.73;49.83;;;;;;;12.20;100.00;100468.97;2002371;70;32831;-78
2022/04/12 01:41:48;;;;;;;57.43;53.30;;;;;;;12.06;100.00;100455.03;2003678;71;32964;-74
2022/04/12 01:47:36;;;;;;;64.10;59.77;;;;;;;11.75;100.00;100467.78;2012782;70;32804;-74
2022/04/12 01:53:26;;;;;;;66.63;62.10;;;;;;;11.75;100.00;100455.27;2048719;69;32787;-75
2022/04/12 01:59:16;;;;;;;66.37;61.97;;;;;;;11.78;100.00;100462.44;2085519;68;32714;-76
2022/04/12 02:05:11;;;;;;;71.10;66.30;;;;;;;11.67;100.00;100465.66;2005256;71;33340;-76
2022/04/12 02:10:57;;;;;;;68.90;64.30;;;;;;;11.89;100.00;100449.76;2014664;71;32973;-79
2022/04/12 02:16:47;;;;;;;69.07;64.47;;;;;;;11.72;100.00;100447.53;2005902;71;33345;-76
2022/04/12 02:22:32;;;;;;;71.90;67.00;;;;;;;11.98;100.00;100457.68;1998545;70;32766;-75
2022/04/12 02:28:28;;;;;;;73.23;68.13;;;;;;;12.01;100.00;100469.59;2009425;71;33214;-79
2022/04/12 02:34:12;;;;;;;72.33;67.43;;;;;;;12.01;100.00;100484.90;2016605;71;33010;-75
2022/04/12 02:39:56;;;;;;;70.50;65.87;;;;;;;12.24;100.00;100495.06;2014632;70;33388;-79
2022/04/12 02:45:46;;;;;;;70.13;64.90;;;;;;;12.32;100.00;100497.18;2015107;71;32870;-81
2022/04/12 02:51:40;;;;;;;71.13;65.47;;;;;;;12.03;100.00;100441.70;2015049;70;32906;-76
2022/04/12 02:57:26;;;;;;;74.07;68.07;;;;;;;12.12;100.00;100431.52;1981534;72;32919;-77
2022/04/12 03:03:15;;;;;;;70.23;64.13;;;;;;;12.10;100.00;100442.71;2004443;71;32776;-77
2022/04/12 03:09:00;;;;;;;68.67;62.87;;;;;;;11.55;100.00;100452.19;2016818;71;32948;-77
2022/04/12 03:14:47;;;;;;;72.00;65.80;;;;;;;11.60;100.00;100439.59;1986474;70;33316;-77
2022/04/12 03:20:30;;;;;;;72.20;65.87;;;;;;;11.50;100.00;100446.72;1994869;70;32779;-80
2022/04/12 03:26:20;;;;;;;73.80;67.37;;;;;;;11.60;100.00;100435.98;2000307;71;32839;-79
2022/04/12 03:32:12;;;;;;;74.70;68.40;;;;;;;11.57;100.00;100422.12;1956418;72;32857;-76
2022/04/12 03:38:02;;;;;;;73.97;67.57;;;;;;;11.42;100.00;100416.22;1935231;73;33598;-79
2022/04/12 03:43:57;;;;;;;75.40;68.83;;;;;;;11.35;100.00;100412.17;2016742;70;32826;-76
2022/04/12 03:49:42;;;;;;;79.23;72.20;;;;;;;11.14;100.00;100400.53;2016579;71;32866;-77
2022/04/12 03:55:35;;;;;;;76.17;69.33;;;;;;;11.11;100.00;100398.36;2002365;70;33364;-77
2022/04/12 04:01:23;;;;;;;74.57;68.03;;;;;;;11.14;100.00;100402.48;1963205;71;39955;-76
2022/04/12 04:07:12;;;;;;;75.10;68.50;;;;;;;10.88;100.00;100400.61;2000327;71;32836;-77
2022/04/12 04:12:57;;;;;;;73.93;67.33;;;;;;;10.70;100.00;100388.34;1998387;71;32968;-76
2022/04/12 04:18:42;;;;;;;72.07;65.53;;;;;;;10.82;100.00;100398.48;2014883;71;33357;-76
2022/04/12 04:24:26;;;;;;;74.00;67.20;;;;;;;10.74;100.00;100382.45;1996594;71;32771;-77
2022/04/12 04:30:15;;;;;;;74.33;67.63;;;;;;;10.65;100.00;100384.27;2016497;71;33010;-76
2022/04/12 04:35:59;;;;;;;78.37;71.30;;;;;;;10.88;100.00;100392.28;2011526;71;32836;-78
2022/04/12 04:41:49;;;;;;;76.70;69.13;;;;;;;10.98;100.00;100401.05;1998485;70;33093;-81
2022/04/12 04:47:36;;;;;;;71.97;65.33;;;;;;;10.87;100.00;100405.90;2007730;71;32902;-79
2022/04/12 04:53:21;;;;;;;78.83;71.80;;;;;;;10.73;100.00;100403.61;2014756;71;32957;-77
2022/04/12 04:59:05;;;;;;;77.27;70.43;;;;;;;10.71;100.00;100412.23;1991803;71;32769;-78
2022/04/12 05:04:50;;;;;;;74.27;67.10;;;;;;;10.79;100.00;100418.51;2009909;71;32845;-78
2022/04/12 05:10:41;;;;;;;80.87;73.57;;;;;;;11.02;100.00;100425.16;2009246;71;32981;-75
2022/04/12 05:16:31;;;;;;;78.60;71.77;;;;;;;11.04;100.00;100424.28;2018399;70;32908;-80
2022/04/12 05:22:17;;;;;;;81.10;73.93;;;;;;;11.09;100.00;100427.00;2001263;70;33476;-80
2022/04/12 05:28:01;;;;;;;77.00;69.97;;;;;;;11.08;100.00;100427.33;2016677;71;32883;-77
2022/04/12 05:33:49;;;;;;;75.50;68.60;;;;;;;11.17;100.00;100425.50;2015093;71;32974;-77
2022/04/12 05:39:42;;;;;;;76.80;70.13;;;;;;;11.21;100.00;100419.63;2011951;70;33231;-77
2022/04/12 05:45:30;;;;;;;77.33;70.97;;;;;;;11.22;100.00;100402.63;1985763;71;33324;-76
2022/04/12 05:51:19;;;;;;;76.70;70.20;;;;;;;11.31;100.00;100374.98;2015027;71;33385;-80
2022/04/12 05:57:12;;;;;;;76.30;69.80;;;;;;;11.53;100.00;100365.45;2006458;71;32778;-76
2022/04/12 06:02:57;;;;;;;77.17;70.70;;;;;;;11.52;100.00;100362.96;2011025;71;32830;-76
2022/04/12 06:08:43;;;;;;;74.27;67.87;;;;;;;11.64;100.00;100380.83;2014893;71;32838;-79
2022/04/12 06:14:36;;;;;;;77.37;70.60;;;;;;;11.72;100.00;100402.42;2006325;71;32885;-81
2022/04/12 06:20:24;;;;;;;78.83;72.17;;;;;;;11.74;100.00;100398.78;1991552;71;32765;-82
2022/04/12 06:26:14;;;;;;;74.83;68.00;;;;;;;11.96;100.00;100423.74;1994875;71;33003;-77
2022/04/12 06:32:00;;;;;;;78.97;72.00;;;;;;;12.07;100.00;100451.66;1998671;70;32758;-77
2022/04/12 06:37:46;;;;;;;79.90;73.23;;;;;;;12.17;100.00;100437.56;2013376;71;33364;-78
2022/04/12 06:43:33;;;;;;;77.60;71.13;;;;;;;12.17;100.00;100437.56;1999755;71;32835;-76
2022/04/12 06:49:19;;;;;;;80.83;74.03;;;;;;;12.10;100.00;100430.19;2011128;71;33061;-81
2022/04/12 06:55:04;;;;;;;80.23;73.50;;;;;;;12.17;100.00;100440.34;2016878;70;32973;-80
2022/04/12 07:00:49;;;;;;;77.40;70.80;;;;;;;12.35;100.00;100422.75;2011788;71;32816;-77
2022/04/12 07:06:34;;;;;;;76.90;70.30;;;;;;;12.53;100.00;100426.03;2050907;69;33318;-77
2022/04/12 07:12:19;;;;;;;78.63;72.27;;;;;;;12.59;100.00;100417.81;1995053;71;32891;-77
2022/04/12 07:18:03;;;;;;;76.73;70.53;;;;;;;12.67;100.00;100394.80;2015062;71;32831;-75
2022/04/12 07:23:50;;;;;;;76.20;69.80;;;;;;;13.01;100.00;100407.45;2002462;71;32773;-77
2022/04/12 07:29:38;;;;;;;77.20;70.97;;;;;;;13.27;100.00;100409.97;2014791;71;32905;-80
2022/04/12 07:35:26;;;;;;;74.70;68.37;;;;;;;13.48;100.00;100411.14;1995624;71;32806;-75
2022/04/12 07:41:10;;;;;;;74.53;68.83;;;;;;;13.49;100.00;100414.19;2003929;71;32879;-75
2022/04/12 07:46:54;;;;;;;72.90;67.40;;;;;;;13.55;100.00;100433.87;2016884;70;33007;-83
2022/04/12 07:52:39;;;;;;;70.63;65.57;;;;;;;13.64;100.00;100376.16;1995313;71;32925;-78
2022/04/12 07:58:24;;;;;;;73.20;67.80;;;;;;;13.84;100.00;100402.73;2018391;71;32895;-73
2022/04/12 08:04:09;;;;;;;70.13;64.87;;;;;;;13.88;100.00;100394.54;2014883;71;32839;-72
2022/04/12 08:09:53;;;;;;;76.07;70.63;;;;;;;13.94;100.00;100397.47;2016587;71;32843;-72
2022/04/12 08:15:37;;;;;;;69.93;64.17;;;;;;;14.00;100.00;100421.30;2000966;71;32778;-74
2022/04/12 08:21:33;;;;;;;66.90;61.63;;;;;;;14.11;100.00;100427.73;1995351;71;32816;-74
2022/04/12 08:27:18;;;;;;;70.67;65.63;;;;;;;14.28;100.00;100401.03;2002705;71;32828;-72
2022/04/12 08:33:03;;;;;;;69.40;64.30;;;;;;;14.28;100.00;100415.00;2006396;71;33353;-74
2022/04/12 08:38:49;;;;;;;68.00;63.30;;;;;;;14.40;100.00;100418.05;2009513;71;32978;-73
2022/04/12 08:44:39;;;;;;;66.80;62.40;;;;;;;14.59;100.00;100427.83;2014881;71;32887;-74
2022/04/12 08:50:24;;;;;;;63.67;59.37;;;;;;;14.59;100.00;100416.64;1995376;71;32802;-73
2022/04/12 08:56:10;;;;;;;63.87;59.37;;;;;;;14.82;100.00;100358.67;1997066;71;32830;-74
2022/04/12 09:01:54;;;;;;;61.60;57.40;;;;;;;14.95;100.00;100386.26;2006366;71;33385;-73
2022/04/12 09:07:47;;;;;;;61.07;56.87;;;;;;;15.00;100.00;100374.34;2014787;71;32816;-73
2022/04/12 09:13:33;;;;;;;59.63;55.50;;;;;;;15.34;100.00;100366.56;2000902;71;32806;-73
2022/04/12 09:19:17;;;;;;;60.33;56.17;;;;;;;15.68;100.00;100342.53;2016559;71;32906;-73
2022/04/12 09:25:04;;;;;;;56.20;52.40;;;;;;;15.88;100.00;100334.25;2002611;71;32857;-73
2022/04/12 09:30:50;;;;;;;56.77;53.07;;;;;;;15.75;100.00;100346.47;2002470;71;32758;-74
2022/04/12 09:36:51;;;;;;;56.50;52.80;;;;;;;15.83;100.00;100287.42;2000464;71;33351;-73
2022/04/12 09:42:44;;;;;;;59.63;55.83;;;;;;;16.01;100.00;100272.75;2016836;71;33346;-73
2022/04/12 09:48:35;;;;;;;59.30;55.40;;;;;;;16.47;100.00;100331.59;1998756;71;33292;-73
2022/04/12 09:54:26;;;;;;;59.97;55.90;;;;;;;16.59;100.00;100340.70;2004417;71;32931;-74
2022/04/12 10:00:15;;;;;;;57.70;53.80;;;;;;;16.35;100.00;100371.52;2018301;71;32814;-73
2022/04/12 10:06:01;;;;;;;56.67;53.03;;;;;;;16.45;100.00;100408.76;2000486;71;32951;-73
2022/04/12 10:11:48;;;;;;;59.10;55.30;;;;;;;16.86;100.00;100385.08;2003862;71;32866;-73
2022/04/12 10:17:35;;;;;;;56.97;53.17;;;;;;;16.92;100.00;100396.36;2007818;70;33397;-73
2022/04/12 10:23:25;;;;;;;55.43;51.87;;;;;;;17.10;100.00;100386.69;2005641;71;32818;-75
2022/04/12 10:29:13;;;;;;;58.47;54.30;;;;;;;17.01;100.00;100399.13;2012909;71;32857;-74
2022/04/12 10:35:11;;;;;;;59.30;55.20;;;;;;;16.94;100.00;100380.03;1996311;71;32796;-73
2022/04/12 10:40:58;;;;;;;60.27;56.57;;;;;;;16.80;100.00;100397.09;2004271;71;32861;-74
2022/04/12 10:46:51;;;;;;;59.33;55.57;;;;;;;16.83;100.00;100406.23;2009801;71;32756;-74
2022/04/12 10:52:45;;;;;;;58.23;54.17;;;;;;;16.83;100.00;100407.63;2006070;71;33302;-74
2022/04/12 10:58:33;;;;;;;56.50;52.90;;;;;;;16.97;100.00;100402.36;2002534;71;32922;-75
2022/04/12 11:04:20;;;;;;;55.30;51.70;;;;;;;17.39;100.00;100383.58;1995384;71;32761;-73
2022/04/12 11:13:44;;;;;;;54.30;50.80;;;;;;;17.66;100.00;100376.05;1998523;71;32871;-75
2022/04/12 11:19:29;;;;;;;55.87;52.47;;;;;;;17.68;100.00;100378.73;2013254;71;32923;-73
2022/04/12 11:25:19;;;;;;;54.83;51.53;;;;;;;17.74;100.00;100383.57;2016837;71;31488;-73
2022/04/12 11:31:07;;;;;;;54.70;50.97;;;;;;;18.11;100.00;100381.70;2016851;70;30897;-73
2022/04/12 11:36:55;;;;;;;51.00;47.90;;;;;;;18.19;100.00;100389.22;2004611;71;32802;-74
2022/04/12 11:42:52;;;;;;;53.10;49.93;;;;;;;17.91;100.00;100399.44;1991515;71;32834;-73
2022/04/12 11:48:47;;;;;;;51.00;47.80;;;;;;;17.66;100.00;100411.98;2013768;71;33263;-73
2022/04/12 11:54:34;;;;;;;51.03;47.90;;;;;;;17.94;100.00;100409.41;2004005;71;30887;-72
2022/04/12 12:00:22;;;;;;;52.13;49.10;;;;;;;18.50;100.00;100404.16;1991555;71;33411;-74
2022/04/12 12:06:09;;;;;;;53.37;50.17;;;;;;;18.28;100.00;100413.02;2015157;71;30921;-74
2022/04/12 12:11:55;;;;;;;54.50;51.13;;;;;;;17.98;100.00;100419.36;2009592;71;30933;-73
2022/04/12 12:17:40;;;;;;;51.40;48.53;;;;;;;18.28;100.00;100422.28;2000817;71;30926;-75
2022/04/12 12:23:26;;;;;;;52.17;48.87;;;;;;;18.26;100.00;100416.20;2004123;71;33347;-73
2022/04/12 12:29:13;;;;;;;68.43;64.53;;;;;;;18.14;100.00;100425.39;2009769;71;30883;-73
2022/04/12 12:35:02;;;;;;;52.33;48.90;;;;;;;18.13;100.00;100409.72;2000439;71;31488;-73
2022/04/12 12:40:47;;;;;;;38.00;35.37;;;;;;;18.58;100.00;100411.13;2018680;71;30976;-73
2022/04/12 12:46:34;;;;;;;50.13;47.07;;;;;;;18.63;100.00;100421.33;2011335;71;31413;-72
2022/04/12 12:52:26;;;;;;;47.80;45.00;;;;;;;18.31;100.00;100424.42;1998969;71;31102;-73
2022/04/12 12:58:13;;;;;;;51.07;47.77;;;;;;;18.43;100.00;100424.45;2016816;71;30917;-73
2022/04/12 13:03:58;;;;;;;47.17;44.17;;;;;;;18.49;100.00;100428.66;1994873;71;31362;-73
2022/04/12 13:09:51;;;;;;;46.50;43.60;;;;;;;18.44;100.00;100431.69;2011560;71;30846;-74
2022/04/12 13:15:36;;;;;;;44.27;41.67;;;;;;;18.79;100.00;100427.09;2011268;71;31388;-75
2022/04/12 13:21:21;;;;;;;44.63;41.80;;;;;;;18.66;100.00;100445.95;2014846;71;31001;-74
2022/04/12 13:27:06;;;;;;;40.50;38.37;;;;;;;18.66;100.00;100443.13;2002105;71;30892;-72
2022/04/12 13:32:52;;;;;;;39.90;37.43;;;;;;;18.70;100.00;100445.48;2009888;71;30945;-74
2022/04/12 13:38:37;;;;;;;40.93;38.43;;;;;;;18.71;100.00;100448.53;2006220;71;30805;-73
2022/04/12 13:44:21;;;;;;;42.67;40.13;;;;;;;18.69;100.00;100455.70;2008090;71;31335;-72
2022/04/12 13:50:08;;;;;;;41.30;38.90;;;;;;;18.78;100.00;100457.83;1900373;75;31593;-75
2022/04/12 13:55:52;;;;;;;42.13;39.80;;;;;;;18.46;100.00;100467.91;2014847;71;31022;-75
2022/04/12 14:01:36;;;;;;;42.63;39.97;;;;;;;18.26;100.00;100483.68;1995044;71;30899;-73
2022/04/12 14:07:22;;;;;;;40.60;38.10;;;;;;;18.08;100.00;100486.41;1982483;72;33479;-73
2022/04/12 14:13:07;;;;;;;41.33;38.87;;;;;;;17.81;100.00;100498.19;2007647;71;33465;-73
2022/04/12 14:18:51;;;;;;;43.00;40.20;;;;;;;17.69;100.00;100515.80;2002626;71;32892;-72
2022/04/12 14:24:35;;;;;;;47.87;44.97;;;;;;;17.66;100.00;100530.53;2011840;71;30849;-72
2022/04/12 14:30:20;;;;;;;48.93;45.93;;;;;;;17.54;100.00;100539.64;2003966;71;31382;-72
2022/04/12 14:36:06;;;;;;;49.20;46.10;;;;;;;17.44;100.00;100567.30;2009962;71;31349;-72
2022/04/12 14:41:52;;;;;;;51.60;48.43;;;;;;;17.20;100.00;100577.14;2008082;71;30908;-72
2022/04/12 14:47:38;;;;;;;54.77;51.07;;;;;;;17.13;100.00;100595.09;2017138;71;30897;-72
2022/04/12 14:53:24;;;;;;;60.37;56.37;;;;;;;17.19;100.00;100592.36;2015213;71;30872;-74
2022/04/12 14:59:09;;;;;;;65.40;60.70;;;;;;;17.03;100.00;100587.62;2016764;71;33363;-72
2022/04/12 15:04:55;;;;;;;65.67;60.80;;;;;;;16.80;100.00;100606.08;2000830;71;30828;-72
2022/04/12 15:10:40;;;;;;;65.70;60.83;;;;;;;16.65;100.00;100614.16;2016914;71;32861;-73
2022/04/12 15:16:28;;;;;;;62.57;57.97;;;;;;;16.76;100.00;100619.13;2015061;71;31425;-72
2022/04/12 15:22:13;;;;;;;66.17;61.40;;;;;;;16.68;100.00;100611.55;2013075;71;31399;-72
2022/04/12 15:27:57;;;;;;;68.23;62.87;;;;;;;16.51;100.00;100619.11;2006461;71;32764;-72
2022/04/12 15:33:41;;;;;;;69.97;64.90;;;;;;;16.32;100.00;100621.66;1995292;71;33299;-68
2022/04/12 15:39:25;;;;;;;69.70;64.47;;;;;;;16.24;100.00;100615.48;2016800;71;33007;-75
2022/04/12 15:45:12;;;;;;;67.13;62.13;;;;;;;16.08;100.00;100624.69;1998731;71;32910;-76
2022/04/12 15:50:57;;;;;;;66.10;60.97;;;;;;;16.18;100.00;100625.19;1995369;71;32996;-75
2022/04/12 15:56:41;;;;;;;69.43;64.57;;;;;;;16.07;100.00;100619.66;2002260;71;33258;-69
2022/04/12 16:02:25;;;;;;;67.70;63.17;;;;;;;15.96;100.00;100630.91;2015335;71;32822;-74
2022/04/12 16:08:10;;;;;;;66.70;61.90;;;;;;;16.11;100.00;100625.43;2016944;71;33339;-74
2022/04/12 16:13:54;;;;;;;68.37;63.57;;;;;;;16.19;100.00;100635.83;2000455;71;33541;-69
2022/04/12 16:19:39;;;;;;;64.20;59.83;;;;;;;16.21;100.00;100639.97;2000966;71;32872;-69
2022/04/12 16:25:23;;;;;;;59.57;55.80;;;;;;;16.16;100.00;100648.53;1991766;71;32749;-74
2022/04/12 16:31:07;;;;;;;62.33;58.43;;;;;;;16.19;100.00;100656.84;2011847;71;32893;-74
2022/04/12 16:36:52;;;;;;;60.60;56.60;;;;;;;16.11;100.00;100663.26;2014813;71;32801;-70
2022/04/12 16:42:36;;;;;;;62.90;59.00;;;;;;;15.97;100.00;100666.77;2013163;71;32798;-75
2022/04/12 16:48:26;;;;;;;61.53;57.63;;;;;;;15.98;100.00;100672.05;2011884;70;33378;-70
2022/04/12 16:54:11;;;;;;;61.87;57.87;;;;;;;15.97;100.00;100670.39;2009691;70;33270;-70
2022/04/12 16:59:55;;;;;;;63.50;59.53;;;;;;;15.83;100.00;100669.71;2011222;71;32819;-70
2022/04/12 17:05:39;;;;;;;66.93;63.10;;;;;;;15.89;100.00;100671.20;1916574;70;115454;-75
2022/04/12 17:11:24;;;;;;;62.77;58.83;;;;;;;15.88;100.00;100685.77;2009776;71;33495;-75
2022/04/12 17:17:09;;;;;;;63.60;59.80;;;;;;;15.83;100.00;100691.52;2017061;71;32921;-81
2022/04/12 17:23:00;;;;;;;63.30;59.40;;;;;;;15.65;100.00;100710.83;1934277;73;33098;-75
2022/04/12 17:28:44;;;;;;;61.47;57.53;;;;;;;15.71;100.00;100708.69;2003898;71;32806;-71
2022/04/12 17:34:29;;;;;;;62.00;58.23;;;;;;;15.70;100.00;100712.66;1994956;71;32729;-72
2022/04/12 17:40:13;;;;;;;62.90;58.80;;;;;;;15.60;100.00;100704.53;2018522;71;32804;-72
2022/04/12 17:46:00;;;;;;;64.73;60.73;;;;;;;15.40;100.00;100715.09;1995188;71;33230;-77
2022/04/12 17:51:45;;;;;;;64.90;60.67;;;;;;;15.55;100.00;100717.27;1994643;71;32860;-76
2022/04/12 17:57:29;;;;;;;65.13;60.83;;;;;;;15.46;100.00;100725.02;2014999;71;32865;-72
2022/04/12 18:03:14;;;;;;;64.37;60.17;;;;;;;15.46;100.00;100752.17;2000694;71;32917;-80
2022/04/12 18:09:00;;;;;;;65.43;61.13;;;;;;;15.32;100.00;100759.25;2014780;71;32815;-75
2022/04/12 18:14:44;;;;;;;62.37;58.47;;;;;;;15.29;100.00;100768.86;2006292;71;32873;-77
2022/04/12 18:20:28;;;;;;;68.23;63.83;;;;;;;15.13;100.00;100767.03;1995159;71;32840;-76
2022/04/12 18:26:15;;;;;;;65.37;61.13;;;;;;;15.00;100.00;100765.11;2009385;71;32948;-76
2022/04/12 18:32:00;;;;;;;68.63;63.83;;;;;;;14.88;100.00;100763.45;2007784;71;32980;-73
2022/04/12 18:37:45;;;;;;;66.83;62.27;;;;;;;14.85;100.00;100778.05;2002095;71;32859;-79
2022/04/12 18:43:30;;;;;;;68.00;63.47;;;;;;;14.98;100.00;100783.59;1991047;71;33259;-71
2022/04/12 18:49:17;;;;;;;68.97;64.57;;;;;;;14.98;100.00;100790.59;2007691;71;32930;-77
2022/04/12 18:55:01;;;;;;;67.70;63.00;;;;;;;14.81;100.00;100784.02;2020600;70;33290;-77
2022/04/12 19:00:47;;;;;;;65.90;61.43;;;;;;;14.80;100.00;100791.60;2016879;71;32947;-76
2022/04/12 19:06:34;;;;;;;66.97;62.47;;;;;;;14.77;100.00;100802.56;2011746;71;32810;-77
2022/04/12 19:12:25;;;;;;;65.97;61.53;;;;;;;14.66;100.00;100796.95;1997037;71;32832;-73
2022/04/12 19:18:11;;;;;;;67.53;63.23;;;;;;;14.67;100.00;100812.03;2002508;71;32902;-74
2022/04/12 19:23:56;;;;;;;65.20;60.80;;;;;;;14.53;100.00;100826.59;2007798;71;33351;-76
2022/04/12 19:29:43;;;;;;;67.07;62.77;;;;;;;14.56;100.00;100832.38;2002737;71;33294;-73
2022/04/12 19:35:27;;;;;;;65.00;60.37;;;;;;;14.46;100.00;100830.38;2008120;71;33298;-79
2022/04/12 19:41:04;;;;;;;64.23;60.20;;;;;;;14.44;100.00;100843.83;2010155;71;31854;-78
2022/04/12 19:46:48;;;;;;;68.60;64.10;;;;;;;14.21;100.00;100869.95;2004017;71;32808;-75
2022/04/12 19:52:33;;;;;;;70.23;65.50;;;;;;;14.03;100.00;100868.93;1995054;71;32770;-74
2022/04/12 19:58:18;;;;;;;67.67;63.13;;;;;;;14.09;100.00;100868.52;2015208;71;32882;-77
2022/04/12 20:04:02;;;;;;;68.10;63.70;;;;;;;13.96;100.00;100878.25;2016550;71;33418;-74
2022/04/12 20:09:47;;;;;;;67.73;63.13;;;;;;;14.03;100.00;100881.50;1991419;71;32747;-76
2022/04/12 20:15:30;;;;;;;68.00;63.20;;;;;;;13.97;100.00;100883.55;1995254;71;33313;-76
2022/04/12 20:21:14;;;;;;;68.33;63.27;;;;;;;13.86;100.00;100896.02;2013143;71;33459;-76
2022/04/12 20:26:59;;;;;;;67.97;63.13;;;;;;;13.92;100.00;100898.16;2011069;71;32823;-77
2022/04/12 20:32:43;;;;;;;66.80;62.20;;;;;;;13.92;100.00;100900.39;2006511;71;33239;-76
2022/04/12 20:38:29;;;;;;;67.23;62.20;;;;;;;13.86;100.00;100911.97;2016771;71;33426;-75
2022/04/12 20:44:14;;;;;;;67.70;62.70;;;;;;;13.79;100.00;100908.16;2005545;71;34152;-77
2022/04/12 20:50:00;;;;;;;66.63;61.37;;;;;;;13.72;100.00;100919.45;2009887;71;33547;-81
2022/04/12 20:55:44;;;;;;;67.53;62.60;;;;;;;13.60;100.00;100918.54;1991494;71;32859;-77
2022/04/12 21:01:27;;;;;;;68.73;63.07;;;;;;;13.46;100.00;100934.38;1991408;71;33208;-78
2022/04/12 21:07:12;;;;;;;67.77;62.50;;;;;;;13.42;100.00;100942.53;2016514;71;32807;-74
2022/04/12 21:12:59;;;;;;;67.47;62.57;;;;;;;13.38;100.00;100955.43;2012874;71;33034;-75
2022/04/12 21:18:45;;;;;;;68.67;63.43;;;;;;;13.24;100.00;100967.06;1998754;70;32846;-76
2022/04/12 21:24:36;;;;;;;68.10;62.90;;;;;;;13.15;100.00;100964.67;1999991;71;32815;-77
2022/04/12 21:30:22;;;;;;;70.10;64.87;;;;;;;12.92;100.00;100967.72;2011180;70;33839;-79
2022/04/12 21:36:09;;;;;;;67.30;62.00;;;;;;;12.84;100.00;100987.89;2016593;71;33444;-76
2022/04/12 21:41:54;;;;;;;68.13;62.93;;;;;;;12.73;100.00;100977.44;1995301;71;32758;-73
2022/04/12 21:47:43;;;;;;;64.40;59.40;;;;;;;12.25;100.00;100998.84;1997165;71;33285;-74
2022/04/12 21:53:29;;;;;;;68.40;62.87;;;;;;;12.07;100.00;101002.89;1995087;71;32754;-75
2022/04/12 21:59:13;;;;;;;67.70;62.17;;;;;;;11.83;100.00;101011.17;2016321;71;32918;-76
2022/04/12 22:04:58;;;;;;;65.47;60.57;;;;;;;11.73;100.00;101015.41;2011231;71;32815;-73
2022/04/12 22:10:43;;;;;;;62.57;57.70;;;;;;;11.53;100.00;101025.25;2009934;71;32749;-76
2022/04/12 22:16:30;;;;;;;69.17;63.90;;;;;;;11.50;100.00;101037.80;1991348;71;32742;-78
2022/04/12 22:22:13;;;;;;;64.33;58.87;;;;;;;11.42;100.00;101041.98;2009249;71;32808;-74
2022/04/12 22:27:58;;;;;;;64.50;59.20;;;;;;;11.25;100.00;101056.01;1996982;71;32742;-75
2022/04/12 22:33:42;;;;;;;62.60;57.13;;;;;;;11.25;100.00;101069.91;1999037;71;32916;-74
2022/04/12 22:39:27;;;;;;;66.50;61.00;;;;;;;11.44;100.00;101068.14;2016646;71;32875;-76
2022/04/12 22:45:12;;;;;;;64.23;58.97;;;;;;;11.79;100.00;101072.16;2004249;70;32928;-76
2022/04/12 22:51:03;;;;;;;66.13;60.07;;;;;;;11.85;100.00;101068.20;2018476;71;32813;-75
2022/04/12 22:56:47;;;;;;;63.43;58.17;;;;;;;11.83;100.00;101082.98;1954549;73;33101;-76
2022/04/12 23:02:32;;;;;;;67.43;61.23;;;;;;;11.94;100.00;101080.14;1991599;70;32828;-75
2022/04/12 23:08:18;;;;;;;67.23;60.93;;;;;;;12.04;100.00;101087.02;2009805;71;32816;-75
2022/04/12 23:14:02;;;;;;;64.90;58.93;;;;;;;12.17;100.00;101084.97;1998709;71;32736;-75
2022/04/12 23:19:46;;;;;;;63.10;57.60;;;;;;;12.20;100.00;101084.37;2014650;71;32807;-75
2022/04/12 23:25:31;;;;;;;61.80;56.67;;;;;;;12.22;100.00;101094.13;2014825;71;33404;-76
2022/04/12 23:31:23;;;;;;;65.67;60.00;;;;;;;12.25;100.00;101093.53;2000715;71;32802;-76
2022/04/12 23:37:08;;;;;;;65.73;60.00;;;;;;;12.31;100.00;101094.34;2009896;71;33235;-74
2022/04/12 23:42:52;;;;;;;69.30;62.37;;;;;;;12.37;100.00;101098.72;2012855;71;32938;-74
2022/04/12 23:48:37;;;;;;;64.83;59.37;;;;;;;12.39;100.00;101101.23;2004124;71;32810;-76
2022/04/12 23:54:27;;;;;;;65.90;60.20;;;;;;;12.26;100.00;101112.48;1996955;71;33256;-75
